Pagrindinis puslapis
METAR-TAF:

METAR-TAF

Oro uostai :

Zanjan, Iranas

platuma: 36-41N, ilguma: 048-29E, Aukštis: 1663 m

Dabartinis oras

Ataskaita buvo paskelbta 1 valandą ir 52 minutes, ne 15:00 UTC
Vėjas 16 kt iš Rytų
Temperatūra 14°C
Drėgmė 58%
Slėgis 1023 hPa
Matomumas 10 km arba daugiau
Mažai debesys ne aukštis 2500 ft

METAR: OITZ 281500Z 08016KT 9999 FEW025 14/06 Q1022 A3020

Laikas: 20:22 (16:52 UTC)


TAF: trūkstamas

Orai ataskaitas ir orų prognozės (METAR, TAF).

turimą stotys yra geltonos ir raudonos taškus žemėlapyje.

Perkelti pele per norėdami pamatyti stoties vardą.

Tada spustelėkite, norėdami matyti oro stebėjimo ir prognozės.

Norėdami pakeisti žemėlapį: spustelėkite ant žalios mygtukų su juodo kryžiaus žemyn,; žalią mygtuką su brūkšneliu, jei norite nutolinti; arba žalių rodyklių gretimoms žemėlapius.


METAR-TAF: